createdAt,value
2023-03-16T00:00:14.132Z,4.50
2023-03-16T00:02:43.750Z,4.50
2023-03-16T00:05:15.158Z,4.50
2023-03-16T00:07:44.280Z,4.50
2023-03-16T00:10:14.276Z,4.40
2023-03-16T00:12:43.716Z,4.40
2023-03-16T00:15:13.018Z,4.40
2023-03-16T00:17:41.359Z,4.40
2023-03-16T00:20:12.557Z,4.40
2023-03-16T00:22:43.016Z,4.40
2023-03-16T00:25:12.449Z,4.40
2023-03-16T00:27:41.468Z,4.40
2023-03-16T00:30:12.512Z,4.40
2023-03-16T00:32:41.826Z,4.40
2023-03-16T00:35:10.813Z,4.40
2023-03-16T00:37:39.782Z,4.40
2023-03-16T00:40:13.660Z,4.30
2023-03-16T00:42:42.019Z,4.30
2023-03-16T00:45:12.108Z,4.30
2023-03-16T00:47:40.434Z,4.30
2023-03-16T00:50:09.674Z,4.30
2023-03-16T00:52:38.067Z,4.20
2023-03-16T00:55:08.601Z,4.20
2023-03-16T00:57:38.438Z,4.20
2023-03-16T01:00:13.022Z,4.20
2023-03-16T01:02:42.177Z,4.10
2023-03-16T01:05:12.602Z,4.10
2023-03-16T01:07:41.348Z,4.10
2023-03-16T01:10:12.857Z,4.10
2023-03-16T01:12:45.577Z,4.00
2023-03-16T01:15:14.329Z,4.30
2023-03-16T01:17:42.773Z,4.00
2023-03-16T01:20:15.640Z,4.00
2023-03-16T01:22:44.041Z,4.00
2023-03-16T01:25:13.575Z,4.10
2023-03-16T01:27:44.614Z,3.90
2023-03-16T01:30:14.165Z,3.90
2023-03-16T01:32:43.442Z,3.90
2023-03-16T01:35:14.918Z,3.90
2023-03-16T01:37:43.250Z,3.90
2023-03-16T01:40:18.032Z,3.90
2023-03-16T01:42:49.596Z,3.90
2023-03-16T01:46:14.302Z,4.30
2023-03-16T01:48:53.600Z,3.90
2023-03-16T01:51:29.667Z,3.80
2023-03-16T01:54:04.872Z,3.80
2023-03-16T01:56:41.786Z,3.80
2023-03-16T01:59:17.930Z,3.80
2023-03-16T02:01:49.163Z,4.00
2023-03-16T02:04:42.315Z,3.70
2023-03-16T02:07:13.146Z,3.70
2023-03-16T02:09:46.341Z,3.70
2023-03-16T02:12:18.509Z,3.70
2023-03-16T02:14:53.515Z,3.70
2023-03-16T02:17:25.345Z,3.60
2023-03-16T02:20:11.095Z,3.60
2023-03-16T02:22:44.442Z,3.80
2023-03-16T02:25:16.626Z,3.60
2023-03-16T02:27:54.466Z,3.60
2023-03-16T02:30:24.572Z,3.60
2023-03-16T02:32:58.671Z,3.90
2023-03-16T02:35:27.136Z,3.60
2023-03-16T02:37:55.553Z,3.60
2023-03-16T02:40:32.493Z,3.50
2023-03-16T02:43:08.406Z,3.50
2023-03-16T02:45:47.824Z,3.50
2023-03-16T02:48:23.730Z,3.50
2023-03-16T02:50:54.876Z,3.50
2023-03-16T02:53:23.728Z,3.40
2023-03-16T02:55:52.476Z,3.40
2023-03-16T02:58:21.404Z,3.40
2023-03-16T03:00:51.220Z,3.40
2023-03-16T03:03:19.965Z,3.40
2023-03-16T03:05:48.514Z,3.40
2023-03-16T03:08:17.411Z,3.40
2023-03-16T03:10:46.765Z,3.30
2023-03-16T03:13:15.222Z,3.30
2023-03-16T03:15:43.810Z,3.30
2023-03-16T03:18:14.660Z,3.20
2023-03-16T03:20:43.259Z,3.20
2023-03-16T03:23:12.144Z,3.20
2023-03-16T03:25:43.167Z,3.10
2023-03-16T03:28:12.480Z,3.10
2023-03-16T03:30:42.717Z,3.10
2023-03-16T03:33:11.299Z,3.10
2023-03-16T03:35:42.125Z,3.00
2023-03-16T03:38:11.604Z,3.00
2023-03-16T03:40:40.486Z,3.00
2023-03-16T03:43:08.801Z,3.00
2023-03-16T03:45:41.263Z,2.90
2023-03-16T03:48:09.728Z,2.90
2023-03-16T03:50:38.570Z,2.90
2023-03-16T03:53:27.160Z,2.90
2023-03-16T03:56:28.028Z,2.90
2023-03-16T03:58:56.668Z,2.90
2023-03-16T04:01:53.790Z,2.80
2023-03-16T04:04:24.446Z,2.80
2023-03-16T04:06:53.528Z,2.80
2023-03-16T04:09:25.272Z,2.70
2023-03-16T04:11:53.666Z,2.80
2023-03-16T04:14:21.977Z,2.80
2023-03-16T04:16:50.357Z,2.80
2023-03-16T04:19:18.908Z,2.80
2023-03-16T04:21:47.499Z,2.70
2023-03-16T04:24:15.865Z,2.70
2023-03-16T04:26:46.957Z,2.70
2023-03-16T04:29:18.278Z,2.70
2023-03-16T04:31:47.841Z,3.00
2023-03-16T04:34:16.599Z,2.70
2023-03-16T04:36:45.108Z,2.70
2023-03-16T04:39:13.812Z,2.60
2023-03-16T04:41:42.201Z,2.60
2023-03-16T04:44:17.517Z,2.60
2023-03-16T04:46:46.193Z,2.60
2023-03-16T04:49:15.086Z,2.60
2023-03-16T04:51:46.305Z,2.60
2023-03-16T04:54:18.644Z,2.60
2023-03-16T04:56:47.061Z,2.60
2023-03-16T04:59:30.072Z,2.50
2023-03-16T05:02:17.772Z,2.50
2023-03-16T05:04:46.086Z,2.50
2023-03-16T05:07:14.463Z,2.50
2023-03-16T05:09:49.345Z,2.50
2023-03-16T05:12:17.826Z,2.40
2023-03-16T05:14:49.231Z,2.40
2023-03-16T05:17:43.032Z,2.40
2023-03-16T05:20:26.024Z,2.40
2023-03-16T05:22:57.462Z,2.40
2023-03-16T05:25:29.386Z,2.30
2023-03-16T05:28:00.170Z,2.30
2023-03-16T05:30:46.312Z,2.30
2023-03-16T05:33:19.151Z,2.20
2023-03-16T05:35:52.594Z,2.20
2023-03-16T05:38:21.556Z,2.20
2023-03-16T05:40:53.106Z,2.20
2023-03-16T05:43:34.397Z,2.10
2023-03-16T05:46:04.832Z,2.10
2023-03-16T05:48:35.712Z,2.10
2023-03-16T05:51:06.077Z,2.10
2023-03-16T05:53:35.542Z,2.00
2023-03-16T05:56:14.211Z,2.00
2023-03-16T05:58:44.959Z,2.00
2023-03-16T06:01:15.644Z,2.00
2023-03-16T06:03:44.997Z,2.00
2023-03-16T06:06:19.442Z,2.00
2023-03-16T06:08:56.776Z,1.90
2023-03-16T06:11:27.513Z,1.90
2023-03-16T06:13:57.932Z,1.90
2023-03-16T06:16:28.158Z,1.90
2023-03-16T06:18:59.669Z,1.90
2023-03-16T06:21:29.317Z,1.90
2023-03-16T06:24:03.591Z,1.90
2023-03-16T06:26:31.928Z,1.90
2023-03-16T06:29:00.476Z,1.90
2023-03-16T06:31:30.353Z,1.90
2023-03-16T06:33:58.609Z,1.90
2023-03-16T06:36:27.110Z,1.90
2023-03-16T06:38:59.028Z,1.90
2023-03-16T06:41:32.546Z,1.90
2023-03-16T06:44:01.313Z,1.90
2023-03-16T06:46:33.122Z,1.90
2023-03-16T06:49:04.354Z,1.90
2023-03-16T06:51:33.105Z,1.90
2023-03-16T06:54:01.655Z,1.90
2023-03-16T06:56:31.826Z,1.90
2023-03-16T06:59:00.415Z,1.90
2023-03-16T07:01:28.962Z,1.90
2023-03-16T07:03:58.856Z,2.00
2023-03-16T07:06:31.370Z,2.00
2023-03-16T07:09:01.422Z,2.00
2023-03-16T07:11:31.335Z,2.00
2023-03-16T07:14:00.402Z,2.00
2023-03-16T07:16:30.817Z,2.00
2023-03-16T07:19:02.665Z,2.10
2023-03-16T07:21:32.197Z,2.10
2023-03-16T07:24:01.629Z,2.10
2023-03-16T07:26:34.301Z,2.10
2023-03-16T07:29:05.056Z,2.10
2023-03-16T07:31:35.125Z,2.10
2023-03-16T07:34:08.824Z,2.20
2023-03-16T07:36:44.812Z,2.20
2023-03-16T07:39:14.424Z,2.20
2023-03-16T07:41:43.955Z,2.20
2023-03-16T07:44:17.696Z,2.20
2023-03-16T07:46:49.788Z,2.20
2023-03-16T07:49:20.214Z,2.30
2023-03-16T07:51:50.133Z,2.30
2023-03-16T07:54:21.564Z,2.30
2023-03-16T07:56:50.096Z,2.30
2023-03-16T07:59:29.261Z,2.30
2023-03-16T08:01:57.890Z,2.60
2023-03-16T08:04:27.772Z,2.40
2023-03-16T08:07:00.335Z,2.40
2023-03-16T08:09:35.984Z,2.40
2023-03-16T08:12:08.573Z,2.50
2023-03-16T08:14:38.487Z,2.50
2023-03-16T08:17:14.013Z,2.50
2023-03-16T08:19:43.954Z,2.50
2023-03-16T08:22:13.040Z,2.60
2023-03-16T08:24:45.417Z,2.60
2023-03-16T08:27:16.114Z,2.70
2023-03-16T08:29:47.997Z,2.80
2023-03-16T08:32:19.419Z,2.80
2023-03-16T08:34:50.140Z,2.90
2023-03-16T08:37:19.349Z,3.00
2023-03-16T08:39:51.511Z,3.00
2023-03-16T08:42:21.170Z,3.10
2023-03-16T08:44:55.450Z,3.20
2023-03-16T08:47:24.632Z,3.30
2023-03-16T08:49:54.527Z,3.30
2023-03-16T08:52:23.773Z,3.40
2023-03-16T08:55:02.362Z,3.50
2023-03-16T08:57:32.832Z,3.50
2023-03-16T09:00:01.430Z,3.60
2023-03-16T09:02:29.860Z,3.70
2023-03-16T09:04:59.567Z,3.80
2023-03-16T09:07:28.302Z,3.90
2023-03-16T09:09:57.152Z,3.90
2023-03-16T09:12:25.461Z,4.00
2023-03-16T09:14:54.336Z,4.10
2023-03-16T09:17:22.628Z,4.20
2023-03-16T09:19:53.197Z,4.20
2023-03-16T09:22:25.255Z,4.30
2023-03-16T09:24:53.628Z,4.50
2023-03-16T09:27:22.541Z,4.50
2023-03-16T09:29:53.077Z,4.60
2023-03-16T09:32:21.758Z,4.70
2023-03-16T09:34:50.668Z,4.80
2023-03-16T09:37:19.078Z,4.90
2023-03-16T09:39:48.724Z,5.00
2023-03-16T09:42:22.621Z,5.10
2023-03-16T09:45:05.546Z,5.20
2023-03-16T09:47:36.173Z,5.30
2023-03-16T09:50:08.568Z,5.40
2023-03-16T09:52:45.825Z,5.50
2023-03-16T09:55:28.394Z,5.60
2023-03-16T09:57:58.890Z,5.80
2023-03-16T10:00:32.791Z,5.90
2023-03-16T10:03:17.742Z,6.10
2023-03-16T10:05:49.251Z,6.30
2023-03-16T10:08:24.389Z,6.40
2023-03-16T10:11:27.022Z,6.60
2023-03-16T10:14:02.568Z,6.70
2023-03-16T10:16:38.675Z,6.90
2023-03-16T10:19:14.562Z,7.10
2023-03-16T10:21:45.058Z,7.30
2023-03-16T10:24:27.283Z,7.40
2023-03-16T10:27:00.569Z,7.50
2023-03-16T10:29:33.947Z,7.70
2023-03-16T10:32:13.626Z,7.80
2023-03-16T10:34:43.928Z,8.00
2023-03-16T10:37:15.690Z,8.20
2023-03-16T10:39:44.038Z,8.30
2023-03-16T10:42:21.410Z,8.50
2023-03-16T10:44:49.835Z,8.60
2023-03-16T10:47:23.308Z,8.80
2023-03-16T10:49:53.419Z,8.90
2023-03-16T10:52:29.297Z,9.10
2023-03-16T10:55:00.477Z,9.20
2023-03-16T10:57:34.668Z,9.40
2023-03-16T11:00:14.357Z,9.50
2023-03-16T11:02:44.071Z,9.70
2023-03-16T11:05:21.440Z,9.80
2023-03-16T11:07:51.099Z,10.00
2023-03-16T11:10:30.383Z,10.10
2023-03-16T11:13:10.120Z,10.20
2023-03-16T11:15:45.602Z,10.30
2023-03-16T11:18:29.658Z,10.40
2023-03-16T11:21:00.537Z,10.50
2023-03-16T11:23:34.230Z,10.60
2023-03-16T11:26:08.720Z,10.70
2023-03-16T11:28:44.427Z,10.80
2023-03-16T11:31:24.452Z,10.90
2023-03-16T11:33:55.550Z,11.20
2023-03-16T11:36:39.473Z,11.10
2023-03-16T11:39:18.261Z,11.20
2023-03-16T11:42:02.510Z,11.30
2023-03-16T11:44:37.728Z,11.40
2023-03-16T11:47:32.018Z,11.50
2023-03-16T11:50:09.319Z,11.50
2023-03-16T11:52:52.536Z,11.60
2023-03-16T11:55:35.209Z,11.70
2023-03-16T11:58:29.847Z,11.70
2023-03-16T12:01:09.709Z,11.80
2023-03-16T12:03:58.435Z,11.90
2023-03-16T12:06:47.106Z,12.00
2023-03-16T12:09:58.567Z,12.00
2023-03-16T12:12:39.060Z,12.10
2023-03-16T12:15:29.737Z,12.20
2023-03-16T12:18:07.759Z,12.20
2023-03-16T12:20:52.981Z,12.30
2023-03-16T12:23:27.915Z,12.30
2023-03-16T12:26:00.868Z,12.40
2023-03-16T12:28:31.903Z,12.40
2023-03-16T12:31:10.366Z,12.40
2023-03-16T12:34:08.336Z,12.40
2023-03-16T12:37:02.133Z,12.50
2023-03-16T12:39:47.948Z,12.50
2023-03-16T12:42:42.486Z,12.50
2023-03-16T12:45:17.771Z,12.50
2023-03-16T12:47:56.421Z,12.40
2023-03-16T12:50:26.276Z,12.50
2023-03-16T12:52:55.869Z,12.40
2023-03-16T12:55:28.321Z,12.50
2023-03-16T12:58:04.001Z,12.50
2023-03-16T13:00:37.468Z,12.50
2023-03-16T13:03:07.843Z,12.50
2023-03-16T13:05:38.741Z,12.50
2023-03-16T13:08:11.930Z,12.50
2023-03-16T13:10:41.101Z,12.50
2023-03-16T13:13:13.102Z,12.40
2023-03-16T13:15:41.930Z,12.50
2023-03-16T13:18:25.492Z,12.40
2023-03-16T13:21:01.801Z,12.40
2023-03-16T13:23:49.692Z,12.40
2023-03-16T13:26:24.968Z,12.40
2023-03-16T13:28:56.792Z,12.40
2023-03-16T13:31:29.599Z,12.40
2023-03-16T13:34:00.390Z,12.40
2023-03-16T13:36:31.905Z,12.40
2023-03-16T13:39:12.211Z,12.40
2023-03-16T13:41:43.210Z,12.40
2023-03-16T13:44:16.305Z,12.40
2023-03-16T13:46:44.631Z,12.40
2023-03-16T13:49:13.721Z,12.40
2023-03-16T13:51:45.189Z,12.40
2023-03-16T13:54:24.628Z,12.30
2023-03-16T13:56:57.367Z,12.30
2023-03-16T13:59:26.834Z,12.40
2023-03-16T14:02:01.914Z,12.30
2023-03-16T14:04:34.032Z,12.20
2023-03-16T14:07:04.868Z,12.20
2023-03-16T14:09:35.996Z,12.20
2023-03-16T14:12:04.807Z,12.20
2023-03-16T14:14:41.305Z,12.10
2023-03-16T14:17:14.017Z,12.30
2023-03-16T14:19:47.197Z,12.10
2023-03-16T14:22:19.968Z,12.30
2023-03-16T14:24:55.203Z,12.00
2023-03-16T14:27:30.800Z,12.00
2023-03-16T14:30:02.966Z,12.00
2023-03-16T14:32:34.294Z,12.00
2023-03-16T14:35:14.097Z,12.00
2023-03-16T14:37:44.997Z,12.00
2023-03-16T14:40:28.563Z,12.00
2023-03-16T14:42:59.759Z,11.90
2023-03-16T14:45:34.854Z,11.90
2023-03-16T14:48:07.398Z,12.00
2023-03-16T14:50:37.200Z,11.90
2023-03-16T14:53:06.998Z,11.90
2023-03-16T14:55:36.374Z,11.90
2023-03-16T14:58:05.458Z,11.90
2023-03-16T15:00:42.790Z,11.90
2023-03-16T15:03:17.774Z,11.80
2023-03-16T15:05:50.269Z,11.90
2023-03-16T15:08:26.389Z,11.80
2023-03-16T15:10:56.237Z,11.80
2023-03-16T15:13:52.648Z,11.80
2023-03-16T15:16:23.124Z,11.80
2023-03-16T15:18:52.292Z,11.80
2023-03-16T15:21:24.552Z,11.80
2023-03-16T15:23:58.564Z,11.80
2023-03-16T15:26:29.890Z,12.00
2023-03-16T15:28:59.529Z,12.80
2023-03-16T15:31:54.487Z,11.80
2023-03-16T15:34:35.614Z,11.80
2023-03-16T15:44:25.921Z,11.70
2023-03-16T15:47:17.566Z,11.50
2023-03-16T15:49:51.797Z,11.60
2023-03-16T15:56:09.602Z,11.60
2023-03-16T15:59:01.853Z,12.20
2023-03-16T16:08:22.410Z,11.50
2023-03-16T16:31:20.539Z,11.40
2023-03-16T16:41:14.106Z,10.90
2023-03-16T16:43:48.821Z,10.30
2023-03-16T16:49:27.207Z,10.70
2023-03-16T16:55:27.963Z,10.60
2023-03-16T16:58:07.798Z,10.80
2023-03-16T17:01:00.615Z,11.10
2023-03-16T17:03:34.633Z,11.10
2023-03-16T17:06:10.887Z,10.20
2023-03-16T17:08:41.129Z,10.30
2023-03-16T17:11:23.976Z,10.90
2023-03-16T17:14:00.596Z,9.40
2023-03-16T17:16:34.132Z,10.10
2023-03-16T17:19:04.515Z,10.20
2023-03-16T17:21:35.351Z,10.20
2023-03-16T17:24:04.972Z,10.80
2023-03-16T17:33:08.537Z,10.00
2023-03-16T17:35:38.313Z,10.00
2023-03-16T17:38:21.266Z,10.10
2023-03-16T17:44:13.134Z,9.90
2023-03-16T17:46:42.128Z,9.80
2023-03-16T17:49:14.517Z,10.30
2023-03-16T17:51:44.160Z,10.80
2023-03-16T17:54:14.077Z,9.70
2023-03-16T17:56:42.688Z,9.70
2023-03-16T17:59:18.230Z,9.60
2023-03-16T18:01:48.383Z,9.60
2023-03-16T18:04:23.272Z,9.50
2023-03-16T18:06:52.896Z,9.50
2023-03-16T18:09:22.767Z,9.50
2023-03-16T18:11:52.911Z,9.40
2023-03-16T18:14:36.382Z,9.40
2023-03-16T18:17:16.314Z,9.40
2023-03-16T18:19:49.110Z,10.20
2023-03-16T18:22:20.314Z,9.30
2023-03-16T18:24:51.574Z,10.70
2023-03-16T18:27:21.291Z,9.20
2023-03-16T18:29:49.933Z,9.20
2023-03-16T18:32:24.918Z,9.60
2023-03-16T18:34:54.757Z,9.10
2023-03-16T18:37:27.453Z,9.10
2023-03-16T18:39:57.710Z,9.00
2023-03-16T18:42:28.884Z,9.20
2023-03-16T18:44:57.564Z,9.80
2023-03-16T18:47:31.635Z,10.10
2023-03-16T18:50:02.369Z,8.90
2023-03-16T18:52:34.391Z,9.00
2023-03-16T18:55:04.739Z,8.80
2023-03-16T18:57:33.781Z,8.80
2023-03-16T19:00:02.975Z,8.50
2023-03-16T19:02:37.482Z,8.80
2023-03-16T19:05:11.978Z,8.70
2023-03-16T19:07:43.849Z,8.70
2023-03-16T19:10:24.294Z,8.70
2023-03-16T19:12:54.045Z,8.70
2023-03-16T19:15:26.824Z,8.60
2023-03-16T19:17:56.575Z,8.60
2023-03-16T19:20:28.608Z,8.60
2023-03-16T19:23:07.601Z,9.50
2023-03-16T19:25:41.800Z,9.10
2023-03-16T19:28:21.435Z,8.50
2023-03-16T19:30:51.274Z,9.10
2023-03-16T19:33:23.246Z,8.40
2023-03-16T19:35:54.049Z,8.40
2023-03-16T19:38:24.251Z,9.30
2023-03-16T19:40:59.210Z,8.70
2023-03-16T19:43:29.358Z,8.30
2023-03-16T19:45:59.417Z,8.30
2023-03-16T19:48:38.851Z,8.20
2023-03-16T19:51:07.829Z,8.20
2023-03-16T19:53:36.706Z,8.20
2023-03-16T19:56:10.398Z,8.10
2023-03-16T19:58:40.556Z,8.10
2023-03-16T20:01:19.411Z,8.10
2023-03-16T20:03:49.347Z,8.10
2023-03-16T20:06:21.822Z,8.10
2023-03-16T20:08:53.333Z,8.00
2023-03-16T20:11:29.672Z,7.90
2023-03-16T20:13:59.823Z,8.00
2023-03-16T20:16:34.806Z,9.00
2023-03-16T20:19:16.450Z,8.00
2023-03-16T20:21:46.763Z,8.60
2023-03-16T20:24:19.390Z,7.70
2023-03-16T20:26:54.431Z,7.90
2023-03-16T20:29:35.220Z,7.90
2023-03-16T20:32:08.662Z,9.10
2023-03-16T20:34:37.900Z,7.90
2023-03-16T20:40:10.557Z,7.80
2023-03-16T20:42:41.725Z,7.80
2023-03-16T20:45:28.334Z,7.80
2023-03-16T20:47:58.111Z,7.80
2023-03-16T20:50:29.725Z,8.90
2023-03-16T20:52:58.647Z,7.70
2023-03-16T20:55:29.809Z,7.70
2023-03-16T20:58:00.058Z,7.80
2023-03-16T21:00:33.358Z,7.70
2023-03-16T21:03:02.790Z,8.40
2023-03-16T21:05:32.209Z,7.60
2023-03-16T21:08:00.855Z,9.00
2023-03-16T21:10:31.011Z,8.10
2023-03-16T21:13:02.088Z,7.60
2023-03-16T21:15:33.982Z,8.80
2023-03-16T21:18:05.180Z,7.70
2023-03-16T21:20:37.005Z,6.80
2023-03-16T21:23:06.696Z,8.40
2023-03-16T21:25:49.183Z,7.50
2023-03-16T21:28:48.368Z,7.40
2023-03-16T21:31:39.095Z,9.00
2023-03-16T21:34:15.224Z,7.80
2023-03-16T21:36:44.548Z,8.70
2023-03-16T21:39:22.729Z,7.50
2023-03-16T21:41:57.852Z,7.40
2023-03-16T21:44:33.932Z,7.40
2023-03-16T21:47:03.146Z,7.80
2023-03-16T21:49:33.167Z,7.40
2023-03-16T21:52:02.679Z,7.60
2023-03-16T21:54:31.730Z,7.40
2023-03-16T21:57:00.786Z,8.30
2023-03-16T21:59:31.913Z,7.40
2023-03-16T22:02:02.529Z,7.60
2023-03-16T22:04:36.054Z,7.50
2023-03-16T22:07:13.422Z,8.00
2023-03-16T22:09:54.091Z,7.10
2023-03-16T23:58:29.669Z,7.20
